sensor_id;sensor_type;location;lat;lon;timestamp;P1;durP1;ratioP1;P2;durP2;ratioP2
20480;SDS011;10399;50.754;3.366;2024-03-25T00:04:01;23.73;;;6.72;;
20480;SDS011;10399;50.754;3.366;2024-03-25T00:06:34;14.07;;;6.82;;
20480;SDS011;10399;50.754;3.366;2024-03-25T00:09:19;22.10;;;6.78;;
20480;SDS011;10399;50.754;3.366;2024-03-25T00:11:49;19.08;;;6.22;;
20480;SDS011;10399;50.754;3.366;2024-03-25T00:17:15;19.35;;;6.30;;
20480;SDS011;10399;50.754;3.366;2024-03-25T00:19:42;12.57;;;5.57;;
20480;SDS011;10399;50.754;3.366;2024-03-25T00:22:08;14.20;;;6.40;;
20480;SDS011;10399;50.754;3.366;2024-03-25T00:24:34;17.15;;;6.65;;
20480;SDS011;10399;50.754;3.366;2024-03-25T00:27:01;18.83;;;7.00;;
20480;SDS011;10399;50.754;3.366;2024-03-25T00:29:28;18.50;;;6.03;;
20480;SDS011;10399;50.754;3.366;2024-03-25T00:31:54;14.10;;;6.03;;
20480;SDS011;10399;50.754;3.366;2024-03-25T00:34:21;13.63;;;5.93;;
20480;SDS011;10399;50.754;3.366;2024-03-25T00:36:49;19.90;;;5.82;;
20480;SDS011;10399;50.754;3.366;2024-03-25T00:39:15;15.85;;;6.38;;
20480;SDS011;10399;50.754;3.366;2024-03-25T00:41:42;16.23;;;6.07;;
20480;SDS011;10399;50.754;3.366;2024-03-25T00:44:08;16.60;;;5.47;;
20480;SDS011;10399;50.754;3.366;2024-03-25T00:46:36;15.35;;;5.90;;
20480;SDS011;10399;50.754;3.366;2024-03-25T00:49:03;18.02;;;5.47;;
20480;SDS011;10399;50.754;3.366;2024-03-25T00:51:29;11.63;;;5.45;;
20480;SDS011;10399;50.754;3.366;2024-03-25T00:53:55;12.15;;;4.93;;
20480;SDS011;10399;50.754;3.366;2024-03-25T00:56:23;14.63;;;5.45;;
20480;SDS011;10399;50.754;3.366;2024-03-25T00:58:51;18.52;;;5.60;;
20480;SDS011;10399;50.754;3.366;2024-03-25T01:01:19;17.88;;;6.30;;
20480;SDS011;10399;50.754;3.366;2024-03-25T01:03:46;12.77;;;5.30;;
20480;SDS011;10399;50.754;3.366;2024-03-25T01:06:13;17.25;;;5.75;;
20480;SDS011;10399;50.754;3.366;2024-03-25T01:08:39;13.85;;;5.47;;
20480;SDS011;10399;50.754;3.366;2024-03-25T01:11:06;21.05;;;5.93;;
20480;SDS011;10399;50.754;3.366;2024-03-25T01:13:33;16.45;;;5.75;;
20480;SDS011;10399;50.754;3.366;2024-03-25T01:15:59;13.15;;;5.68;;
20480;SDS011;10399;50.754;3.366;2024-03-25T01:18:25;23.45;;;6.47;;
20480;SDS011;10399;50.754;3.366;2024-03-25T01:20:52;18.70;;;7.65;;
20480;SDS011;10399;50.754;3.366;2024-03-25T01:23:18;19.38;;;6.03;;
20480;SDS011;10399;50.754;3.366;2024-03-25T01:25:44;14.73;;;6.32;;
20480;SDS011;10399;50.754;3.366;2024-03-25T01:28:10;17.58;;;6.00;;
20480;SDS011;10399;50.754;3.366;2024-03-25T01:30:36;10.80;;;5.57;;
20480;SDS011;10399;50.754;3.366;2024-03-25T01:33:04;18.50;;;6.18;;
20480;SDS011;10399;50.754;3.366;2024-03-25T01:35:31;22.90;;;6.13;;
20480;SDS011;10399;50.754;3.366;2024-03-25T01:37:57;11.75;;;6.03;;
20480;SDS011;10399;50.754;3.366;2024-03-25T01:40:24;20.77;;;5.57;;
20480;SDS011;10399;50.754;3.366;2024-03-25T01:42:58;20.63;;;6.28;;
20480;SDS011;10399;50.754;3.366;2024-03-25T01:45:28;16.20;;;5.60;;
20480;SDS011;10399;50.754;3.366;2024-03-25T01:48:06;15.95;;;6.28;;
20480;SDS011;10399;50.754;3.366;2024-03-25T01:50:36;18.88;;;6.10;;
20480;SDS011;10399;50.754;3.366;2024-03-25T01:53:04;21.38;;;5.95;;
20480;SDS011;10399;50.754;3.366;2024-03-25T01:55:32;18.05;;;5.95;;
20480;SDS011;10399;50.754;3.366;2024-03-25T01:58:01;11.75;;;5.47;;
20480;SDS011;10399;50.754;3.366;2024-03-25T02:00:28;17.02;;;5.82;;
20480;SDS011;10399;50.754;3.366;2024-03-25T02:02:55;10.20;;;5.32;;
20480;SDS011;10399;50.754;3.366;2024-03-25T02:05:22;16.75;;;6.13;;
20480;SDS011;10399;50.754;3.366;2024-03-25T02:07:48;14.13;;;6.45;;
20480;SDS011;10399;50.754;3.366;2024-03-25T02:10:15;15.32;;;6.53;;
20480;SDS011;10399;50.754;3.366;2024-03-25T02:12:42;13.88;;;6.07;;
20480;SDS011;10399;50.754;3.366;2024-03-25T02:15:09;16.58;;;5.38;;
20480;SDS011;10399;50.754;3.366;2024-03-25T02:17:38;19.02;;;6.35;;
20480;SDS011;10399;50.754;3.366;2024-03-25T02:20:05;16.40;;;6.35;;
20480;SDS011;10399;50.754;3.366;2024-03-25T02:22:34;25.70;;;7.00;;
20480;SDS011;10399;50.754;3.366;2024-03-25T02:25:07;20.02;;;5.82;;
20480;SDS011;10399;50.754;3.366;2024-03-25T02:27:35;17.75;;;6.07;;
20480;SDS011;10399;50.754;3.366;2024-03-25T02:32:32;13.38;;;5.80;;
20480;SDS011;10399;50.754;3.366;2024-03-25T02:34:58;19.70;;;6.57;;
20480;SDS011;10399;50.754;3.366;2024-03-25T02:37:25;20.85;;;5.90;;
20480;SDS011;10399;50.754;3.366;2024-03-25T02:39:53;10.38;;;5.32;;
20480;SDS011;10399;50.754;3.366;2024-03-25T02:42:23;16.92;;;5.28;;
20480;SDS011;10399;50.754;3.366;2024-03-25T02:44:50;20.10;;;5.32;;
20480;SDS011;10399;50.754;3.366;2024-03-25T02:47:16;14.27;;;5.63;;
20480;SDS011;10399;50.754;3.366;2024-03-25T02:49:43;13.45;;;5.68;;
20480;SDS011;10399;50.754;3.366;2024-03-25T02:52:09;20.20;;;5.60;;
20480;SDS011;10399;50.754;3.366;2024-03-25T02:54:35;20.60;;;5.43;;
20480;SDS011;10399;50.754;3.366;2024-03-25T02:57:01;10.30;;;5.10;;
20480;SDS011;10399;50.754;3.366;2024-03-25T02:59:27;16.77;;;5.20;;
20480;SDS011;10399;50.754;3.366;2024-03-25T03:01:54;18.15;;;5.63;;
20480;SDS011;10399;50.754;3.366;2024-03-25T03:04:20;15.23;;;5.75;;
20480;SDS011;10399;50.754;3.366;2024-03-25T03:06:47;22.80;;;5.43;;
20480;SDS011;10399;50.754;3.366;2024-03-25T03:09:13;23.30;;;6.38;;
20480;SDS011;10399;50.754;3.366;2024-03-25T03:11:39;18.02;;;6.07;;
20480;SDS011;10399;50.754;3.366;2024-03-25T03:14:06;16.48;;;5.80;;
20480;SDS011;10399;50.754;3.366;2024-03-25T03:16:32;16.60;;;6.22;;
20480;SDS011;10399;50.754;3.366;2024-03-25T03:18:58;22.55;;;6.28;;
20480;SDS011;10399;50.754;3.366;2024-03-25T03:21:25;16.35;;;5.95;;
20480;SDS011;10399;50.754;3.366;2024-03-25T03:23:51;20.23;;;5.80;;
20480;SDS011;10399;50.754;3.366;2024-03-25T03:26:18;25.15;;;6.72;;
20480;SDS011;10399;50.754;3.366;2024-03-25T03:28:45;22.08;;;6.15;;
20480;SDS011;10399;50.754;3.366;2024-03-25T03:31:11;20.38;;;7.10;;
20480;SDS011;10399;50.754;3.366;2024-03-25T03:33:38;17.23;;;5.85;;
20480;SDS011;10399;50.754;3.366;2024-03-25T03:36:05;16.00;;;5.80;;
20480;SDS011;10399;50.754;3.366;2024-03-25T03:38:31;19.95;;;6.38;;
20480;SDS011;10399;50.754;3.366;2024-03-25T03:43:24;17.70;;;6.00;;
20480;SDS011;10399;50.754;3.366;2024-03-25T03:45:50;24.10;;;6.47;;
20480;SDS011;10399;50.754;3.366;2024-03-25T03:48:17;27.92;;;7.15;;
20480;SDS011;10399;50.754;3.366;2024-03-25T03:50:43;17.42;;;6.80;;
20480;SDS011;10399;50.754;3.366;2024-03-25T03:53:09;27.45;;;7.05;;
20480;SDS011;10399;50.754;3.366;2024-03-25T03:55:35;26.70;;;7.30;;
20480;SDS011;10399;50.754;3.366;2024-03-25T03:58:02;23.75;;;6.88;;
20480;SDS011;10399;50.754;3.366;2024-03-25T04:00:32;21.27;;;6.50;;
20480;SDS011;10399;50.754;3.366;2024-03-25T04:03:00;23.05;;;7.57;;
20480;SDS011;10399;50.754;3.366;2024-03-25T04:05:30;23.33;;;7.85;;
20480;SDS011;10399;50.754;3.366;2024-03-25T04:07:56;27.55;;;6.78;;
20480;SDS011;10399;50.754;3.366;2024-03-25T04:10:23;24.52;;;6.90;;
20480;SDS011;10399;50.754;3.366;2024-03-25T04:12:50;28.52;;;6.88;;
20480;SDS011;10399;50.754;3.366;2024-03-25T04:15:17;31.52;;;7.88;;
20480;SDS011;10399;50.754;3.366;2024-03-25T04:17:46;26.15;;;8.05;;
20480;SDS011;10399;50.754;3.366;2024-03-25T04:20:15;22.80;;;7.88;;
20480;SDS011;10399;50.754;3.366;2024-03-25T04:22:42;28.20;;;7.53;;
20480;SDS011;10399;50.754;3.366;2024-03-25T04:25:09;30.75;;;7.80;;
20480;SDS011;10399;50.754;3.366;2024-03-25T04:27:38;25.83;;;7.72;;
20480;SDS011;10399;50.754;3.366;2024-03-25T04:30:05;22.80;;;7.85;;
20480;SDS011;10399;50.754;3.366;2024-03-25T04:32:34;25.40;;;9.35;;
20480;SDS011;10399;50.754;3.366;2024-03-25T04:35:01;30.55;;;9.13;;
20480;SDS011;10399;50.754;3.366;2024-03-25T04:37:29;20.70;;;8.85;;
20480;SDS011;10399;50.754;3.366;2024-03-25T04:39:55;29.55;;;10.07;;
20480;SDS011;10399;50.754;3.366;2024-03-25T04:42:22;27.17;;;9.40;;
20480;SDS011;10399;50.754;3.366;2024-03-25T04:44:49;28.33;;;9.55;;
20480;SDS011;10399;50.754;3.366;2024-03-25T04:47:16;27.90;;;8.98;;
20480;SDS011;10399;50.754;3.366;2024-03-25T04:49:43;26.60;;;7.95;;
20480;SDS011;10399;50.754;3.366;2024-03-25T04:52:10;26.02;;;7.55;;
20480;SDS011;10399;50.754;3.366;2024-03-25T04:54:42;25.23;;;7.90;;
20480;SDS011;10399;50.754;3.366;2024-03-25T04:57:09;26.83;;;8.55;;
20480;SDS011;10399;50.754;3.366;2024-03-25T04:59:35;20.88;;;7.97;;
20480;SDS011;10399;50.754;3.366;2024-03-25T05:02:02;22.90;;;7.72;;
20480;SDS011;10399;50.754;3.366;2024-03-25T05:04:28;27.65;;;8.15;;
20480;SDS011;10399;50.754;3.366;2024-03-25T05:06:55;26.88;;;7.72;;
20480;SDS011;10399;50.754;3.366;2024-03-25T05:09:21;24.75;;;7.85;;
20480;SDS011;10399;50.754;3.366;2024-03-25T05:11:47;28.15;;;8.18;;
20480;SDS011;10399;50.754;3.366;2024-03-25T05:14:13;18.48;;;7.88;;
20480;SDS011;10399;50.754;3.366;2024-03-25T05:16:40;23.20;;;7.80;;
20480;SDS011;10399;50.754;3.366;2024-03-25T05:19:06;27.45;;;9.63;;
20480;SDS011;10399;50.754;3.366;2024-03-25T05:21:32;29.48;;;9.63;;
20480;SDS011;10399;50.754;3.366;2024-03-25T05:23:59;36.17;;;9.88;;
20480;SDS011;10399;50.754;3.366;2024-03-25T05:26:26;30.00;;;10.55;;
20480;SDS011;10399;50.754;3.366;2024-03-25T05:28:56;38.72;;;11.65;;
20480;SDS011;10399;50.754;3.366;2024-03-25T05:31:22;34.20;;;11.85;;
20480;SDS011;10399;50.754;3.366;2024-03-25T05:33:50;36.33;;;12.48;;
20480;SDS011;10399;50.754;3.366;2024-03-25T05:36:17;31.85;;;12.35;;
20480;SDS011;10399;50.754;3.366;2024-03-25T05:38:46;35.55;;;12.48;;
20480;SDS011;10399;50.754;3.366;2024-03-25T05:41:13;40.15;;;12.60;;
20480;SDS011;10399;50.754;3.366;2024-03-25T05:43:39;42.60;;;13.18;;
20480;SDS011;10399;50.754;3.366;2024-03-25T05:46:05;48.10;;;13.85;;
20480;SDS011;10399;50.754;3.366;2024-03-25T05:48:31;44.08;;;14.10;;
20480;SDS011;10399;50.754;3.366;2024-03-25T05:53:25;47.13;;;13.77;;
20480;SDS011;10399;50.754;3.366;2024-03-25T05:55:56;59.63;;;14.63;;
20480;SDS011;10399;50.754;3.366;2024-03-25T05:58:22;43.83;;;14.25;;
20480;SDS011;10399;50.754;3.366;2024-03-25T06:00:49;56.50;;;13.88;;
20480;SDS011;10399;50.754;3.366;2024-03-25T06:03:15;57.38;;;14.52;;
20480;SDS011;10399;50.754;3.366;2024-03-25T06:05:42;51.30;;;13.80;;
20480;SDS011;10399;50.754;3.366;2024-03-25T06:08:08;49.70;;;15.00;;
20480;SDS011;10399;50.754;3.366;2024-03-25T06:10:44;53.08;;;15.25;;
20480;SDS011;10399;50.754;3.366;2024-03-25T06:13:25;50.28;;;14.15;;
20480;SDS011;10399;50.754;3.366;2024-03-25T06:16:05;52.97;;;14.77;;
20480;SDS011;10399;50.754;3.366;2024-03-25T06:18:41;50.58;;;15.77;;
20480;SDS011;10399;50.754;3.366;2024-03-25T06:21:59;51.92;;;15.82;;
20480;SDS011;10399;50.754;3.366;2024-03-25T06:24:32;50.22;;;14.57;;
20480;SDS011;10399;50.754;3.366;2024-03-25T06:27:04;50.63;;;14.63;;
20480;SDS011;10399;50.754;3.366;2024-03-25T06:29:30;55.80;;;16.48;;
20480;SDS011;10399;50.754;3.366;2024-03-25T06:32:07;50.58;;;15.23;;
20480;SDS011;10399;50.754;3.366;2024-03-25T06:34:58;49.38;;;15.73;;
20480;SDS011;10399;50.754;3.366;2024-03-25T06:37:39;64.63;;;16.75;;
20480;SDS011;10399;50.754;3.366;2024-03-25T06:40:05;66.03;;;15.82;;
20480;SDS011;10399;50.754;3.366;2024-03-25T06:42:32;58.35;;;16.33;;
20480;SDS011;10399;50.754;3.366;2024-03-25T06:45:07;59.40;;;17.65;;
20480;SDS011;10399;50.754;3.366;2024-03-25T06:47:52;69.68;;;18.38;;
20480;SDS011;10399;50.754;3.366;2024-03-25T06:50:18;67.20;;;19.77;;
20480;SDS011;10399;50.754;3.366;2024-03-25T06:53:01;73.55;;;19.08;;
20480;SDS011;10399;50.754;3.366;2024-03-25T06:55:36;57.40;;;18.65;;
20480;SDS011;10399;50.754;3.366;2024-03-25T06:58:03;57.03;;;18.45;;
20480;SDS011;10399;50.754;3.366;2024-03-25T07:00:41;61.75;;;16.58;;
20480;SDS011;10399;50.754;3.366;2024-03-25T07:03:24;64.15;;;17.10;;
20480;SDS011;10399;50.754;3.366;2024-03-25T07:05:53;64.22;;;17.20;;
20480;SDS011;10399;50.754;3.366;2024-03-25T07:08:36;57.25;;;17.00;;
20480;SDS011;10399;50.754;3.366;2024-03-25T07:11:02;59.55;;;16.02;;
20480;SDS011;10399;50.754;3.366;2024-03-25T07:13:36;50.83;;;15.32;;
20480;SDS011;10399;50.754;3.366;2024-03-25T07:16:14;47.70;;;14.68;;
20480;SDS011;10399;50.754;3.366;2024-03-25T07:18:47;44.53;;;13.63;;
20480;SDS011;10399;50.754;3.366;2024-03-25T07:21:13;45.65;;;13.90;;
20480;SDS011;10399;50.754;3.366;2024-03-25T07:23:48;43.22;;;13.27;;
20480;SDS011;10399;50.754;3.366;2024-03-25T07:26:32;46.03;;;12.45;;
20480;SDS011;10399;50.754;3.366;2024-03-25T07:28:59;44.47;;;11.25;;
20480;SDS011;10399;50.754;3.366;2024-03-25T07:31:26;42.80;;;11.15;;
20480;SDS011;10399;50.754;3.366;2024-03-25T07:33:56;37.15;;;9.00;;
20480;SDS011;10399;50.754;3.366;2024-03-25T07:36:22;30.05;;;8.95;;
20480;SDS011;10399;50.754;3.366;2024-03-25T07:38:56;41.10;;;9.27;;
20480;SDS011;10399;50.754;3.366;2024-03-25T07:41:27;33.78;;;9.13;;
20480;SDS011;10399;50.754;3.366;2024-03-25T07:43:59;37.08;;;9.43;;
20480;SDS011;10399;50.754;3.366;2024-03-25T07:46:31;30.70;;;8.55;;
20480;SDS011;10399;50.754;3.366;2024-03-25T07:49:13;28.77;;;8.63;;
20480;SDS011;10399;50.754;3.366;2024-03-25T07:51:58;41.80;;;9.35;;
20480;SDS011;10399;50.754;3.366;2024-03-25T07:54:30;34.35;;;9.75;;
20480;SDS011;10399;50.754;3.366;2024-03-25T07:57:06;33.90;;;9.95;;
20480;SDS011;10399;50.754;3.366;2024-03-25T07:59:32;37.00;;;11.18;;
20480;SDS011;10399;50.754;3.366;2024-03-25T08:02:13;36.20;;;11.00;;
20480;SDS011;10399;50.754;3.366;2024-03-25T08:04:40;23.80;;;9.85;;
20480;SDS011;10399;50.754;3.366;2024-03-25T08:07:24;36.45;;;10.65;;
20480;SDS011;10399;50.754;3.366;2024-03-25T08:10:02;27.90;;;9.35;;
20480;SDS011;10399;50.754;3.366;2024-03-25T08:12:51;27.80;;;8.80;;
20480;SDS011;10399;50.754;3.366;2024-03-25T08:15:27;21.48;;;8.35;;
20480;SDS011;10399;50.754;3.366;2024-03-25T08:20:38;26.63;;;10.13;;
20480;SDS011;10399;50.754;3.366;2024-03-25T08:23:07;56.75;;;22.75;;
20480;SDS011;10399;50.754;3.366;2024-03-25T08:25:42;63.42;;;24.60;;
20480;SDS011;10399;50.754;3.366;2024-03-25T08:28:09;52.45;;;20.33;;
20480;SDS011;10399;50.754;3.366;2024-03-25T08:30:35;39.60;;;17.85;;
20480;SDS011;10399;50.754;3.366;2024-03-25T08:33:05;33.83;;;13.90;;
20480;SDS011;10399;50.754;3.366;2024-03-25T08:35:31;31.60;;;13.00;;
20480;SDS011;10399;50.754;3.366;2024-03-25T08:38:00;31.02;;;10.93;;
20480;SDS011;10399;50.754;3.366;2024-03-25T08:40:35;29.48;;;10.45;;
20480;SDS011;10399;50.754;3.366;2024-03-25T08:43:12;31.52;;;8.18;;
20480;SDS011;10399;50.754;3.366;2024-03-25T08:48:33;29.73;;;8.23;;
20480;SDS011;10399;50.754;3.366;2024-03-25T08:51:09;25.52;;;9.27;;
20480;SDS011;10399;50.754;3.366;2024-03-25T08:53:36;22.77;;;8.90;;
20480;SDS011;10399;50.754;3.366;2024-03-25T08:56:12;31.73;;;11.10;;
20480;SDS011;10399;50.754;3.366;2024-03-25T08:58:41;25.00;;;12.23;;
20480;SDS011;10399;50.754;3.366;2024-03-25T09:01:08;33.00;;;12.85;;
20480;SDS011;10399;50.754;3.366;2024-03-25T09:03:36;26.80;;;10.73;;
20480;SDS011;10399;50.754;3.366;2024-03-25T09:06:03;30.67;;;10.32;;
20480;SDS011;10399;50.754;3.366;2024-03-25T09:08:33;32.25;;;10.65;;
20480;SDS011;10399;50.754;3.366;2024-03-25T09:11:28;31.85;;;9.40;;
20480;SDS011;10399;50.754;3.366;2024-03-25T09:13:58;28.85;;;10.18;;
20480;SDS011;10399;50.754;3.366;2024-03-25T09:16:24;29.45;;;11.52;;
20480;SDS011;10399;50.754;3.366;2024-03-25T09:18:59;26.55;;;10.13;;
20480;SDS011;10399;50.754;3.366;2024-03-25T09:21:31;25.33;;;10.32;;
20480;SDS011;10399;50.754;3.366;2024-03-25T09:24:00;22.33;;;9.00;;
20480;SDS011;10399;50.754;3.366;2024-03-25T09:26:26;28.38;;;11.35;;
20480;SDS011;10399;50.754;3.366;2024-03-25T09:29:00;37.15;;;14.38;;
20480;SDS011;10399;50.754;3.366;2024-03-25T09:31:26;34.60;;;12.27;;
20480;SDS011;10399;50.754;3.366;2024-03-25T09:34:04;36.03;;;14.68;;
20480;SDS011;10399;50.754;3.366;2024-03-25T09:36:35;42.10;;;15.10;;
20480;SDS011;10399;50.754;3.366;2024-03-25T09:39:10;36.45;;;15.07;;
20480;SDS011;10399;50.754;3.366;2024-03-25T09:41:39;41.00;;;17.33;;
20480;SDS011;10399;50.754;3.366;2024-03-25T09:44:08;31.35;;;12.02;;
20480;SDS011;10399;50.754;3.366;2024-03-25T09:46:38;27.88;;;11.98;;
20480;SDS011;10399;50.754;3.366;2024-03-25T09:49:05;32.30;;;11.38;;
20480;SDS011;10399;50.754;3.366;2024-03-25T09:51:44;32.00;;;11.68;;
20480;SDS011;10399;50.754;3.366;2024-03-25T09:54:15;33.72;;;14.20;;
20480;SDS011;10399;50.754;3.366;2024-03-25T09:56:41;36.05;;;14.45;;
20480;SDS011;10399;50.754;3.366;2024-03-25T09:59:11;61.33;;;26.48;;
20480;SDS011;10399;50.754;3.366;2024-03-25T10:01:42;58.00;;;29.63;;
20480;SDS011;10399;50.754;3.366;2024-03-25T10:04:15;59.10;;;29.38;;
20480;SDS011;10399;50.754;3.366;2024-03-25T10:06:50;54.80;;;27.42;;
20480;SDS011;10399;50.754;3.366;2024-03-25T10:09:36;57.35;;;24.50;;
20480;SDS011;10399;50.754;3.366;2024-03-25T10:12:12;42.72;;;20.80;;
20480;SDS011;10399;50.754;3.366;2024-03-25T10:14:44;51.60;;;22.75;;
20480;SDS011;10399;50.754;3.366;2024-03-25T10:17:21;44.60;;;21.08;;
20480;SDS011;10399;50.754;3.366;2024-03-25T10:19:53;34.47;;;16.70;;
20480;SDS011;10399;50.754;3.366;2024-03-25T10:22:25;27.20;;;11.43;;
20480;SDS011;10399;50.754;3.366;2024-03-25T10:25:00;29.67;;;13.68;;
20480;SDS011;10399;50.754;3.366;2024-03-25T10:27:37;24.42;;;10.55;;
20480;SDS011;10399;50.754;3.366;2024-03-25T10:30:41;25.58;;;9.77;;
20480;SDS011;10399;50.754;3.366;2024-03-25T10:33:11;20.63;;;7.88;;
20480;SDS011;10399;50.754;3.366;2024-03-25T10:35:41;16.27;;;8.10;;
20480;SDS011;10399;50.754;3.366;2024-03-25T10:38:13;18.33;;;8.18;;
20480;SDS011;10399;50.754;3.366;2024-03-25T10:40:51;21.52;;;9.35;;
20480;SDS011;10399;50.754;3.366;2024-03-25T10:43:21;23.52;;;9.30;;
20480;SDS011;10399;50.754;3.366;2024-03-25T10:45:55;18.27;;;8.40;;
20480;SDS011;10399;50.754;3.366;2024-03-25T10:48:29;19.58;;;8.63;;
20480;SDS011;10399;50.754;3.366;2024-03-25T10:51:04;19.88;;;8.70;;
20480;SDS011;10399;50.754;3.366;2024-03-25T10:53:43;15.00;;;7.53;;
20480;SDS011;10399;50.754;3.366;2024-03-25T10:56:14;20.90;;;7.97;;
20480;SDS011;10399;50.754;3.366;2024-03-25T10:59:02;20.35;;;8.55;;
20480;SDS011;10399;50.754;3.366;2024-03-25T11:01:32;21.10;;;7.78;;
20480;SDS011;10399;50.754;3.366;2024-03-25T11:04:01;13.57;;;6.68;;
20480;SDS011;10399;50.754;3.366;2024-03-25T11:06:40;18.75;;;7.82;;
20480;SDS011;10399;50.754;3.366;2024-03-25T11:09:07;16.30;;;6.75;;
20480;SDS011;10399;50.754;3.366;2024-03-25T11:11:36;19.70;;;7.10;;
20480;SDS011;10399;50.754;3.366;2024-03-25T11:14:15;14.05;;;6.45;;
20480;SDS011;10399;50.754;3.366;2024-03-25T11:16:55;13.38;;;5.40;;
20480;SDS011;10399;50.754;3.366;2024-03-25T11:19:29;15.35;;;4.35;;
20480;SDS011;10399;50.754;3.366;2024-03-25T11:22:08;8.80;;;3.88;;
20480;SDS011;10399;50.754;3.366;2024-03-25T11:24:44;13.45;;;3.90;;
20480;SDS011;10399;50.754;3.366;2024-03-25T11:27:13;12.57;;;3.50;;
20480;SDS011;10399;50.754;3.366;2024-03-25T11:29:40;7.15;;;3.20;;
20480;SDS011;10399;50.754;3.366;2024-03-25T11:32:09;10.15;;;3.47;;
20480;SDS011;10399;50.754;3.366;2024-03-25T11:34:38;8.43;;;3.30;;
20480;SDS011;10399;50.754;3.366;2024-03-25T11:37:21;6.78;;;3.13;;
20480;SDS011;10399;50.754;3.366;2024-03-25T11:40:01;8.43;;;3.42;;
20480;SDS011;10399;50.754;3.366;2024-03-25T11:42:33;7.63;;;2.97;;
20480;SDS011;10399;50.754;3.366;2024-03-25T11:45:20;9.15;;;2.92;;
20480;SDS011;10399;50.754;3.366;2024-03-25T11:47:58;8.48;;;3.13;;
20480;SDS011;10399;50.754;3.366;2024-03-25T11:50:30;11.63;;;3.38;;
20480;SDS011;10399;50.754;3.366;2024-03-25T11:53:06;13.63;;;3.33;;
20480;SDS011;10399;50.754;3.366;2024-03-25T11:55:33;8.88;;;2.95;;
20480;SDS011;10399;50.754;3.366;2024-03-25T11:57:59;10.07;;;3.08;;
20480;SDS011;10399;50.754;3.366;2024-03-25T12:00:26;10.15;;;3.22;;
20480;SDS011;10399;50.754;3.366;2024-03-25T12:02:55;9.00;;;3.45;;
20480;SDS011;10399;50.754;3.366;2024-03-25T12:05:25;12.93;;;3.90;;
20480;SDS011;10399;50.754;3.366;2024-03-25T12:08:03;8.27;;;3.38;;
20480;SDS011;10399;50.754;3.366;2024-03-25T12:10:44;12.27;;;3.17;;
20480;SDS011;10399;50.754;3.366;2024-03-25T12:13:38;8.23;;;3.17;;
20480;SDS011;10399;50.754;3.366;2024-03-25T12:19:30;12.73;;;3.30;;
20480;SDS011;10399;50.754;3.366;2024-03-25T12:22:11;12.20;;;3.65;;
20480;SDS011;10399;50.754;3.366;2024-03-25T12:24:38;8.80;;;3.17;;
20480;SDS011;10399;50.754;3.366;2024-03-25T12:27:13;8.20;;;3.40;;
20480;SDS011;10399;50.754;3.366;2024-03-25T12:32:56;11.70;;;3.05;;
20480;SDS011;10399;50.754;3.366;2024-03-25T12:35:34;10.60;;;3.55;;
20480;SDS011;10399;50.754;3.366;2024-03-25T12:38:32;8.57;;;2.95;;
20480;SDS011;10399;50.754;3.366;2024-03-25T12:41:36;11.88;;;2.70;;
20480;SDS011;10399;50.754;3.366;2024-03-25T12:44:07;8.13;;;2.47;;
20480;SDS011;10399;50.754;3.366;2024-03-25T12:46:34;8.48;;;3.05;;
20480;SDS011;10399;50.754;3.366;2024-03-25T12:49:00;10.07;;;2.50;;
20480;SDS011;10399;50.754;3.366;2024-03-25T12:51:27;7.28;;;3.00;;
20480;SDS011;10399;50.754;3.366;2024-03-25T12:53:53;10.32;;;2.35;;
20480;SDS011;10399;50.754;3.366;2024-03-25T12:56:20;10.35;;;2.83;;
20480;SDS011;10399;50.754;3.366;2024-03-25T12:58:46;7.35;;;2.60;;
20480;SDS011;10399;50.754;3.366;2024-03-25T13:01:14;8.80;;;2.72;;
20480;SDS011;10399;50.754;3.366;2024-03-25T13:03:43;10.45;;;2.95;;
20480;SDS011;10399;50.754;3.366;2024-03-25T13:06:09;7.07;;;2.53;;
20480;SDS011;10399;50.754;3.366;2024-03-25T13:08:36;5.72;;;2.35;;
20480;SDS011;10399;50.754;3.366;2024-03-25T13:11:04;9.65;;;2.40;;
20480;SDS011;10399;50.754;3.366;2024-03-25T13:13:31;10.13;;;2.63;;
20480;SDS011;10399;50.754;3.366;2024-03-25T13:15:58;11.23;;;2.25;;
20480;SDS011;10399;50.754;3.366;2024-03-25T13:18:25;9.23;;;2.10;;
20480;SDS011;10399;50.754;3.366;2024-03-25T13:20:51;5.63;;;1.85;;
20480;SDS011;10399;50.754;3.366;2024-03-25T13:23:17;7.53;;;2.17;;
20480;SDS011;10399;50.754;3.366;2024-03-25T13:25:45;7.90;;;2.33;;
20480;SDS011;10399;50.754;3.366;2024-03-25T13:28:11;6.78;;;1.90;;
20480;SDS011;10399;50.754;3.366;2024-03-25T13:30:38;5.30;;;1.77;;
20480;SDS011;10399;50.754;3.366;2024-03-25T13:33:04;6.13;;;1.98;;
20480;SDS011;10399;50.754;3.366;2024-03-25T13:35:31;5.55;;;2.10;;
20480;SDS011;10399;50.754;3.366;2024-03-25T13:37:57;5.60;;;1.88;;
20480;SDS011;10399;50.754;3.366;2024-03-25T13:40:24;5.43;;;2.15;;
20480;SDS011;10399;50.754;3.366;2024-03-25T13:42:51;4.68;;;2.03;;
20480;SDS011;10399;50.754;3.366;2024-03-25T13:45:17;7.22;;;1.92;;
20480;SDS011;10399;50.754;3.366;2024-03-25T13:47:43;3.95;;;1.67;;
20480;SDS011;10399;50.754;3.366;2024-03-25T13:50:10;4.82;;;1.85;;
20480;SDS011;10399;50.754;3.366;2024-03-25T13:52:37;5.32;;;1.70;;
20480;SDS011;10399;50.754;3.366;2024-03-25T13:55:05;7.03;;;2.28;;
20480;SDS011;10399;50.754;3.366;2024-03-25T13:57:31;7.70;;;1.92;;
20480;SDS011;10399;50.754;3.366;2024-03-25T13:59:57;9.38;;;1.85;;
20480;SDS011;10399;50.754;3.366;2024-03-25T14:02:24;4.90;;;2.13;;
20480;SDS011;10399;50.754;3.366;2024-03-25T14:04:50;7.43;;;1.63;;
20480;SDS011;10399;50.754;3.366;2024-03-25T14:07:17;6.07;;;1.75;;
20480;SDS011;10399;50.754;3.366;2024-03-25T14:09:43;7.05;;;1.80;;
20480;SDS011;10399;50.754;3.366;2024-03-25T14:12:09;4.28;;;1.95;;
20480;SDS011;10399;50.754;3.366;2024-03-25T14:14:35;5.93;;;2.00;;
20480;SDS011;10399;50.754;3.366;2024-03-25T14:17:03;4.75;;;1.67;;
20480;SDS011;10399;50.754;3.366;2024-03-25T14:19:30;7.28;;;1.50;;
20480;SDS011;10399;50.754;3.366;2024-03-25T14:21:56;7.35;;;1.90;;
20480;SDS011;10399;50.754;3.366;2024-03-25T14:24:23;9.10;;;1.63;;
20480;SDS011;10399;50.754;3.366;2024-03-25T14:26:49;8.57;;;1.88;;
20480;SDS011;10399;50.754;3.366;2024-03-25T14:29:17;7.15;;;2.20;;
20480;SDS011;10399;50.754;3.366;2024-03-25T14:31:44;7.07;;;1.77;;
20480;SDS011;10399;50.754;3.366;2024-03-25T14:34:10;5.72;;;2.10;;
20480;SDS011;10399;50.754;3.366;2024-03-25T14:36:37;6.05;;;1.67;;
20480;SDS011;10399;50.754;3.366;2024-03-25T14:39:03;4.85;;;1.60;;
20480;SDS011;10399;50.754;3.366;2024-03-25T14:41:40;8.27;;;2.05;;
20480;SDS011;10399;50.754;3.366;2024-03-25T14:44:07;8.30;;;2.67;;
20480;SDS011;10399;50.754;3.366;2024-03-25T14:46:34;10.80;;;2.17;;
20480;SDS011;10399;50.754;3.366;2024-03-25T14:49:00;7.22;;;1.88;;
20480;SDS011;10399;50.754;3.366;2024-03-25T14:51:27;5.93;;;2.10;;
20480;SDS011;10399;50.754;3.366;2024-03-25T14:53:53;5.93;;;1.90;;
20480;SDS011;10399;50.754;3.366;2024-03-25T14:56:20;7.63;;;1.75;;
20480;SDS011;10399;50.754;3.366;2024-03-25T14:58:46;8.05;;;2.33;;
20480;SDS011;10399;50.754;3.366;2024-03-25T15:01:12;7.15;;;1.73;;
20480;SDS011;10399;50.754;3.366;2024-03-25T15:03:38;4.90;;;1.98;;
20480;SDS011;10399;50.754;3.366;2024-03-25T15:06:04;8.15;;;1.77;;
20480;SDS011;10399;50.754;3.366;2024-03-25T15:08:31;7.72;;;1.77;;
20480;SDS011;10399;50.754;3.366;2024-03-25T15:10:57;12.63;;;2.42;;
20480;SDS011;10399;50.754;3.366;2024-03-25T15:13:24;5.28;;;1.77;;
20480;SDS011;10399;50.754;3.366;2024-03-25T15:15:50;6.45;;;2.05;;